createdAt,value
2017-06-17T00:00:45.688Z,8.77
2017-06-17T00:01:40.675Z,8.81
2017-06-17T00:02:40.674Z,8.82
2017-06-17T00:03:35.695Z,8.82
2017-06-17T00:04:35.774Z,8.83
2017-06-17T00:05:30.771Z,8.84
2017-06-17T00:06:25.808Z,8.83
2017-06-17T00:07:19.906Z,8.80
2017-06-17T00:08:07.882Z,8.76
2017-06-17T00:08:55.970Z,8.72
2017-06-17T00:09:51.062Z,8.74
2017-06-17T00:10:39.266Z,8.74
2017-06-17T00:11:27.065Z,8.71
2017-06-17T00:12:15.138Z,8.68
2017-06-17T00:13:03.132Z,8.66
2017-06-17T00:13:51.237Z,8.64
2017-06-17T00:14:40.210Z,8.66
2017-06-17T00:15:28.559Z,8.66
2017-06-17T00:16:16.301Z,8.66
2017-06-17T00:17:16.351Z,8.64
2017-06-17T00:18:16.396Z,8.61
2017-06-17T00:19:04.416Z,8.60
2017-06-17T00:20:04.474Z,8.62
2017-06-17T00:20:59.478Z,8.57
2017-06-17T00:21:53.505Z,8.57
2017-06-17T00:22:53.551Z,8.56
2017-06-17T00:23:48.548Z,8.58
2017-06-17T00:24:43.599Z,8.58
2017-06-17T00:25:44.625Z,8.56
2017-06-17T00:26:44.835Z,8.58
2017-06-17T00:27:44.684Z,8.60
2017-06-17T00:28:39.784Z,8.58
2017-06-17T00:29:33.775Z,8.58
2017-06-17T00:30:33.815Z,8.59
2017-06-17T00:31:28.840Z,8.65
2017-06-17T00:32:28.872Z,8.69
2017-06-17T00:33:22.887Z,8.75
2017-06-17T00:34:22.955Z,8.78
2017-06-17T00:35:17.974Z,8.84
2017-06-17T00:36:13.020Z,8.84
2017-06-17T00:37:13.047Z,8.84
2017-06-17T00:38:08.103Z,8.82
2017-06-17T00:38:57.147Z,8.80
2017-06-17T00:39:51.134Z,8.84
2017-06-17T00:40:40.211Z,8.89
2017-06-17T00:41:35.205Z,8.93
2017-06-17T00:42:35.236Z,8.98
2017-06-17T00:43:30.347Z,9.03
2017-06-17T00:44:25.298Z,9.08
2017-06-17T00:45:26.364Z,9.13
2017-06-17T00:46:27.394Z,9.17
2017-06-17T00:47:27.407Z,9.22
2017-06-17T00:48:28.465Z,9.31
2017-06-17T00:49:22.493Z,9.35
2017-06-17T00:50:22.502Z,9.44
2017-06-17T00:51:16.523Z,9.51
2017-06-17T00:52:17.689Z,9.56
2017-06-17T00:53:06.582Z,9.58
2017-06-17T00:54:06.631Z,9.60
2017-06-17T00:55:07.689Z,9.61
2017-06-17T00:56:08.741Z,9.62
2017-06-17T00:57:02.763Z,9.64
2017-06-17T00:58:02.789Z,9.62
2017-06-17T00:58:57.803Z,9.65
2017-06-17T00:59:52.872Z,9.65
2017-06-17T01:00:53.952Z,9.64
2017-06-17T01:01:54.877Z,9.63
2017-06-17T01:02:49.969Z,9.63
2017-06-17T01:03:43.967Z,9.61
2017-06-17T01:04:44.011Z,9.62
2017-06-17T01:05:44.055Z,9.61
2017-06-17T01:06:39.095Z,9.60
2017-06-17T01:07:28.106Z,9.61
2017-06-17T01:08:22.171Z,9.59
2017-06-17T01:09:17.195Z,9.63
2017-06-17T01:10:11.208Z,9.64
2017-06-17T01:10:59.282Z,9.64
2017-06-17T01:11:54.319Z,9.64
2017-06-17T01:12:48.368Z,9.68
2017-06-17T01:13:48.410Z,9.68
2017-06-17T01:14:43.397Z,9.68
2017-06-17T01:15:38.470Z,9.67
2017-06-17T01:16:38.495Z,9.64
2017-06-17T01:17:33.588Z,9.65
2017-06-17T01:18:28.574Z,9.66
2017-06-17T01:19:16.578Z,9.67
2017-06-17T01:20:11.710Z,9.65
2017-06-17T01:21:00.693Z,9.64
2017-06-17T01:21:48.720Z,9.64
2017-06-17T01:22:48.789Z,9.64
2017-06-17T01:23:42.773Z,9.62
2017-06-17T01:24:37.812Z,9.65
2017-06-17T01:25:31.867Z,9.68
2017-06-17T01:26:31.872Z,9.69
2017-06-17T01:27:20.959Z,9.68
2017-06-17T01:28:15.295Z,9.66
2017-06-17T01:29:10.066Z,9.66
2017-06-17T01:30:05.325Z,9.69
2017-06-17T01:30:53.019Z,9.68
2017-06-17T01:31:42.126Z,9.66
2017-06-17T01:32:30.443Z,9.64
2017-06-17T01:33:18.292Z,9.64
2017-06-17T01:34:07.216Z,9.64
2017-06-17T01:34:55.290Z,9.64
2017-06-17T01:35:43.307Z,9.64
2017-06-17T01:36:32.635Z,9.62
2017-06-17T01:37:27.416Z,9.65
2017-06-17T01:38:21.464Z,9.67
2017-06-17T01:39:21.481Z,9.64
2017-06-17T01:40:10.514Z,9.67
2017-06-17T01:41:04.576Z,9.68
2017-06-17T01:42:04.606Z,9.71
2017-06-17T01:43:04.623Z,9.70
2017-06-17T01:43:59.702Z,9.71
2017-06-17T01:44:53.679Z,9.73
2017-06-17T01:45:42.767Z,9.77
2017-06-17T01:46:37.782Z,9.79
2017-06-17T01:47:31.827Z,9.82
2017-06-17T01:48:26.882Z,9.85
2017-06-17T01:49:26.951Z,9.86
2017-06-17T01:50:16.176Z,9.92
2017-06-17T01:51:04.971Z,9.94
2017-06-17T01:51:53.008Z,9.96
2017-06-17T01:52:42.042Z,9.95
2017-06-17T01:53:31.093Z,9.96
2017-06-17T01:54:19.132Z,9.97
2017-06-17T01:55:08.204Z,9.96
2017-06-17T01:55:57.216Z,10.00
2017-06-17T01:56:51.267Z,9.99
2017-06-17T01:57:40.340Z,10.01
2017-06-17T01:58:28.380Z,10.02
2017-06-17T01:59:17.411Z,10.03
2017-06-17T02:00:12.496Z,10.10
2017-06-17T02:01:12.482Z,10.12
2017-06-17T02:02:07.503Z,10.22
2017-06-17T02:03:01.562Z,10.26
2017-06-17T02:03:50.574Z,10.34
2017-06-17T02:04:38.614Z,10.41
2017-06-17T02:05:33.745Z,10.50
2017-06-17T02:06:22.705Z,10.60
2017-06-17T02:07:22.742Z,10.64
2017-06-17T02:08:22.798Z,10.65
2017-06-17T02:09:11.806Z,10.64
2017-06-17T02:10:06.878Z,10.68
2017-06-17T02:11:06.997Z,10.66
2017-06-17T02:12:01.937Z,10.60
2017-06-17T02:12:49.961Z,10.66
2017-06-17T02:13:44.991Z,10.68
2017-06-17T02:14:40.049Z,10.71
2017-06-17T02:15:28.111Z,10.75
2017-06-17T02:16:16.121Z,10.70
2017-06-17T02:17:10.149Z,10.63
2017-06-17T02:18:04.180Z,10.73
2017-06-17T02:18:52.214Z,10.82
2017-06-17T02:19:46.284Z,10.82
2017-06-17T02:20:40.294Z,10.78
2017-06-17T02:21:41.380Z,10.76
2017-06-17T02:22:35.379Z,10.80
2017-06-17T02:23:29.405Z,10.81
2017-06-17T02:24:24.450Z,10.78
2017-06-17T02:25:13.474Z,10.74
2017-06-17T02:26:07.574Z,10.84
2017-06-17T02:26:56.608Z,10.84
2017-06-17T02:27:50.610Z,10.80
2017-06-17T02:28:45.599Z,10.74
2017-06-17T02:29:46.692Z,10.72
2017-06-17T02:30:40.685Z,10.80
2017-06-17T02:31:34.793Z,10.76
2017-06-17T02:32:34.795Z,10.86
2017-06-17T02:33:28.820Z,10.90
2017-06-17T02:34:17.906Z,10.88
2017-06-17T02:35:17.914Z,10.86
2017-06-17T02:36:06.957Z,10.78
2017-06-17T02:37:02.011Z,10.83
2017-06-17T02:38:02.109Z,10.80
2017-06-17T02:38:56.076Z,10.69
2017-06-17T02:39:50.129Z,10.64
2017-06-17T02:40:39.161Z,10.55
2017-06-17T02:41:39.198Z,10.50
2017-06-17T02:42:34.206Z,10.40
2017-06-17T02:43:34.252Z,10.32
2017-06-17T02:44:28.582Z,10.24
2017-06-17T02:45:22.308Z,10.32
2017-06-17T02:46:17.383Z,10.34
2017-06-17T02:47:06.405Z,10.31
2017-06-17T02:48:00.474Z,10.33
2017-06-17T02:48:55.489Z,10.32
2017-06-17T02:49:50.497Z,10.24
2017-06-17T02:50:45.523Z,10.22
2017-06-17T02:51:39.583Z,10.26
2017-06-17T02:52:27.799Z,10.28
2017-06-17T02:53:22.679Z,10.34
2017-06-17T02:54:16.868Z,10.34
2017-06-17T02:55:11.048Z,10.37
2017-06-17T02:56:10.832Z,10.40
2017-06-17T02:57:05.811Z,10.38
2017-06-17T02:57:59.874Z,10.36
2017-06-17T02:58:47.902Z,10.36
2017-06-17T02:59:41.948Z,10.38
2017-06-17T03:00:31.017Z,10.47
2017-06-17T03:01:25.012Z,10.49
2017-06-17T03:02:19.082Z,10.50
2017-06-17T03:03:13.119Z,10.50
2017-06-17T03:04:13.160Z,10.49
2017-06-17T03:05:02.209Z,10.54
2017-06-17T03:05:51.222Z,10.70
2017-06-17T03:06:45.260Z,10.87
2017-06-17T03:07:39.303Z,10.90
2017-06-17T03:08:33.374Z,10.88
2017-06-17T03:09:33.378Z,10.92
2017-06-17T03:10:22.487Z,10.96
2017-06-17T03:11:22.446Z,11.04
2017-06-17T03:12:16.504Z,11.12
2017-06-17T03:13:04.496Z,11.20
2017-06-17T03:14:04.573Z,11.34
2017-06-17T03:14:59.596Z,11.42
2017-06-17T03:15:53.693Z,11.40
2017-06-17T03:16:47.686Z,11.34
2017-06-17T03:17:41.696Z,11.39
2017-06-17T03:18:35.801Z,11.39
2017-06-17T03:19:23.823Z,11.30
2017-06-17T03:20:18.878Z,11.42
2017-06-17T03:21:13.919Z,11.45
2017-06-17T03:22:08.098Z,11.47
2017-06-17T03:22:56.968Z,11.44
2017-06-17T03:23:51.998Z,11.38
2017-06-17T03:24:46.022Z,11.40
2017-06-17T03:25:41.363Z,11.47
2017-06-17T03:26:29.341Z,11.40
2017-06-17T03:27:23.198Z,11.30
2017-06-17T03:28:17.214Z,11.30
2017-06-17T03:29:06.225Z,11.44
2017-06-17T03:29:54.297Z,11.45
2017-06-17T03:30:54.302Z,11.42
2017-06-17T03:31:43.406Z,11.58
2017-06-17T03:32:31.432Z,11.62
2017-06-17T03:33:31.486Z,11.61
2017-06-17T03:34:25.491Z,11.62
2017-06-17T03:35:25.496Z,11.65
2017-06-17T03:36:14.574Z,11.62
2017-06-17T03:37:09.619Z,11.59
2017-06-17T03:38:09.653Z,11.58
2017-06-17T03:38:58.923Z,11.55
2017-06-17T03:39:52.726Z,11.77
2017-06-17T03:40:52.775Z,11.94
2017-06-17T03:41:41.823Z,12.03
2017-06-17T03:42:29.919Z,11.86
2017-06-17T03:43:29.897Z,11.78
2017-06-17T03:44:23.907Z,11.90
2017-06-17T03:45:12.113Z,11.88
2017-06-17T03:46:12.992Z,11.88
2017-06-17T03:47:08.016Z,11.94
2017-06-17T03:48:03.097Z,12.09
2017-06-17T03:48:57.257Z,12.06
2017-06-17T03:49:52.254Z,12.12
2017-06-17T03:50:41.193Z,12.24
2017-06-17T03:51:41.203Z,12.20
2017-06-17T03:52:36.259Z,12.15
2017-06-17T03:53:37.321Z,12.14
2017-06-17T03:54:37.439Z,12.06
2017-06-17T03:55:32.392Z,12.00
2017-06-17T03:56:26.690Z,11.94
2017-06-17T03:57:20.634Z,11.87
2017-06-17T03:58:15.713Z,11.90
2017-06-17T03:59:10.805Z,11.96
2017-06-17T03:59:58.773Z,11.92
2017-06-17T04:00:58.609Z,11.90
2017-06-17T04:01:58.715Z,11.92
2017-06-17T04:02:53.769Z,12.04
2017-06-17T04:03:42.937Z,12.12
2017-06-17T04:04:31.978Z,12.22
2017-06-17T04:05:25.822Z,12.26
2017-06-17T04:06:25.876Z,12.14
2017-06-17T04:07:25.882Z,12.16
2017-06-17T04:08:19.918Z,12.16
2017-06-17T04:09:15.008Z,12.10
2017-06-17T04:10:09.337Z,12.02
2017-06-17T04:11:03.007Z,12.20
2017-06-17T04:11:52.090Z,12.16
2017-06-17T04:12:40.115Z,12.11
2017-06-17T04:13:34.402Z,12.08
2017-06-17T04:14:23.443Z,12.08
2017-06-17T04:15:17.369Z,12.06
2017-06-17T04:16:11.297Z,12.07
2017-06-17T04:17:00.362Z,12.07
2017-06-17T04:17:48.392Z,12.01
2017-06-17T04:18:37.429Z,11.89
2017-06-17T04:19:25.491Z,12.02
2017-06-17T04:20:13.713Z,11.98
2017-06-17T04:21:02.593Z,11.98
2017-06-17T04:21:50.669Z,12.01
2017-06-17T04:22:44.720Z,12.06
2017-06-17T04:23:38.700Z,12.16
2017-06-17T04:24:27.042Z,12.16
2017-06-17T04:25:15.724Z,12.11
2017-06-17T04:26:10.818Z,12.11
2017-06-17T04:27:04.878Z,12.08
2017-06-17T04:28:05.900Z,12.02
2017-06-17T04:29:01.035Z,12.02
2017-06-17T04:30:01.244Z,12.04
2017-06-17T04:31:07.020Z,12.07
2017-06-17T04:32:02.105Z,12.04
2017-06-17T04:32:56.082Z,12.12
2017-06-17T04:33:56.254Z,12.14
2017-06-17T04:34:51.409Z,12.04
2017-06-17T04:35:46.242Z,12.03
2017-06-17T04:36:46.251Z,11.98
2017-06-17T04:37:41.293Z,11.92
2017-06-17T04:38:36.316Z,11.87
2017-06-17T04:39:30.362Z,11.92
2017-06-17T04:40:31.415Z,11.93
2017-06-17T04:41:26.449Z,11.87
2017-06-17T04:42:26.500Z,11.80
2017-06-17T04:43:26.500Z,11.90
2017-06-17T04:44:26.811Z,11.89
2017-06-17T04:45:26.738Z,11.88
2017-06-17T04:46:26.607Z,11.82
2017-06-17T04:47:26.733Z,11.74
2017-06-17T04:48:27.002Z,11.70
2017-06-17T04:49:26.718Z,11.77
2017-06-17T04:50:26.758Z,11.71
2017-06-17T04:51:27.017Z,11.78
2017-06-17T04:52:27.099Z,11.69
2017-06-17T04:53:27.042Z,11.66
2017-06-17T04:54:21.184Z,11.72
2017-06-17T04:55:21.214Z,11.65
2017-06-17T04:56:16.013Z,11.56
2017-06-17T04:57:11.008Z,11.56
2017-06-17T04:58:00.063Z,11.52
2017-06-17T04:58:49.101Z,11.55
2017-06-17T04:59:43.151Z,11.50
2017-06-17T05:00:43.212Z,11.47
2017-06-17T05:01:38.203Z,11.53
2017-06-17T05:02:38.285Z,11.49
2017-06-17T05:03:33.311Z,11.47
2017-06-17T05:04:28.365Z,11.52
2017-06-17T05:05:22.400Z,11.49
2017-06-17T05:06:23.501Z,11.42
2017-06-17T05:07:23.451Z,11.46
2017-06-17T05:08:18.493Z,11.35
2017-06-17T05:09:24.519Z,11.42
2017-06-17T05:10:24.690Z,11.42
2017-06-17T05:11:25.790Z,11.41
2017-06-17T05:12:26.904Z,11.44
2017-06-17T05:13:26.856Z,11.48
2017-06-17T05:14:26.889Z,11.54
2017-06-17T05:15:20.981Z,11.52
2017-06-17T05:16:20.958Z,11.56
2017-06-17T05:17:15.404Z,11.56
2017-06-17T05:18:15.043Z,11.55
2017-06-17T05:19:04.132Z,11.57
2017-06-17T05:19:53.163Z,11.60
2017-06-17T05:20:47.238Z,11.64
2017-06-17T05:21:47.273Z,11.59
2017-06-17T05:22:36.893Z,11.58
2017-06-17T05:23:30.105Z,11.58
2017-06-17T05:24:30.297Z,11.56
2017-06-17T05:25:25.431Z,11.56
2017-06-17T05:26:20.374Z,11.60
2017-06-17T05:27:14.461Z,11.64
2017-06-17T05:28:14.565Z,11.66
2017-06-17T05:29:09.596Z,11.76
2017-06-17T05:30:04.613Z,11.79
2017-06-17T05:31:04.420Z,11.78
2017-06-17T05:31:59.714Z,11.83
2017-06-17T05:32:54.656Z,11.78
2017-06-17T05:33:43.804Z,11.90
2017-06-17T05:34:38.853Z,11.98
2017-06-17T05:35:38.867Z,11.94
2017-06-17T05:36:33.877Z,11.94
2017-06-17T05:37:28.962Z,12.03
2017-06-17T05:38:22.963Z,12.04
2017-06-17T05:39:18.112Z,11.99
2017-06-17T05:40:07.086Z,11.96
2017-06-17T05:40:54.874Z,11.92
2017-06-17T05:41:43.174Z,11.88
2017-06-17T05:42:36.987Z,11.86
2017-06-17T05:43:25.010Z,11.85
2017-06-17T05:44:25.352Z,11.96
2017-06-17T05:45:25.048Z,11.89
2017-06-17T05:46:25.120Z,11.88
2017-06-17T05:47:25.145Z,11.94
2017-06-17T05:48:25.456Z,11.92
2017-06-17T05:49:19.228Z,11.91
2017-06-17T05:50:07.329Z,11.88
2017-06-17T05:50:55.305Z,11.96
2017-06-17T05:51:43.412Z,12.02
2017-06-17T05:52:32.656Z,12.00
2017-06-17T05:53:20.565Z,12.01
2017-06-17T05:54:09.528Z,12.05
2017-06-17T05:54:57.760Z,12.10
2017-06-17T05:55:46.136Z,12.16
2017-06-17T05:56:34.839Z,12.12
2017-06-17T05:57:23.862Z,12.22
2017-06-17T05:58:12.987Z,12.29
2017-06-17T05:59:12.950Z,12.26
2017-06-17T06:00:07.344Z,12.23
2017-06-17T06:01:02.380Z,12.23
2017-06-17T06:01:56.137Z,12.33
2017-06-17T06:02:51.146Z,12.45
2017-06-17T06:03:52.271Z,12.44
2017-06-17T06:04:46.272Z,12.50
2017-06-17T06:05:40.362Z,12.60
2017-06-17T06:06:34.210Z,12.52
2017-06-17T06:07:29.144Z,12.56
2017-06-17T06:08:17.429Z,12.62
2017-06-17T06:09:11.419Z,12.63
2017-06-17T06:09:59.526Z,12.79
2017-06-17T06:10:47.323Z,12.82
2017-06-17T06:11:36.980Z,12.94
2017-06-17T06:12:30.438Z,12.96
2017-06-17T06:13:30.675Z,13.05
2017-06-17T06:14:24.759Z,13.10
2017-06-17T06:15:19.574Z,13.20
2017-06-17T06:16:14.642Z,13.16
2017-06-17T06:17:09.826Z,13.40
2017-06-17T06:18:04.829Z,13.50
2017-06-17T06:18:53.875Z,13.64
2017-06-17T06:19:47.755Z,13.68
2017-06-17T06:20:41.802Z,13.63
2017-06-17T06:21:36.128Z,13.77
2017-06-17T06:22:31.153Z,13.94
2017-06-17T06:23:19.167Z,13.98
2017-06-17T06:24:07.223Z,14.05
2017-06-17T06:24:56.275Z,14.19
2017-06-17T06:25:45.279Z,14.35
2017-06-17T06:26:45.359Z,14.44
2017-06-17T06:27:34.452Z,14.52
2017-06-17T06:28:28.457Z,14.60
2017-06-17T06:29:17.489Z,14.54
2017-06-17T06:30:05.537Z,14.53
2017-06-17T06:30:59.617Z,14.64
2017-06-17T06:31:47.664Z,14.58
2017-06-17T06:32:35.695Z,14.56
2017-06-17T06:33:24.735Z,14.59
2017-06-17T06:34:12.756Z,14.58
2017-06-17T06:35:01.821Z,14.64
2017-06-17T06:35:55.877Z,14.79
2017-06-17T06:36:50.947Z,14.88
2017-06-17T06:37:44.998Z,14.99
2017-06-17T06:38:38.994Z,14.96
2017-06-17T06:39:28.017Z,14.91
2017-06-17T06:40:16.135Z,14.82
2017-06-17T06:41:05.163Z,14.86
2017-06-17T06:41:59.209Z,14.82
2017-06-17T06:42:48.380Z,14.91
2017-06-17T06:43:42.170Z,14.96
2017-06-17T06:44:37.301Z,14.99
2017-06-17T06:45:31.376Z,15.06
2017-06-17T06:46:26.388Z,15.14
2017-06-17T06:47:21.442Z,14.96
2017-06-17T06:48:15.482Z,14.97
2017-06-17T06:49:09.545Z,15.08
2017-06-17T06:50:04.558Z,14.99
2017-06-17T06:50:58.631Z,14.89
2017-06-17T06:51:52.698Z,14.67
2017-06-17T06:52:52.729Z,14.48
2017-06-17T06:53:41.529Z,14.42
2017-06-17T06:54:35.818Z,14.42
2017-06-17T06:55:23.763Z,14.42
2017-06-17T06:56:23.946Z,14.27
2017-06-17T06:57:17.924Z,14.32
2017-06-17T06:58:12.809Z,14.38
2017-06-17T06:59:13.073Z,14.34
2017-06-17T07:00:01.856Z,14.33
2017-06-17T07:00:50.911Z,14.43
2017-06-17T07:01:44.913Z,14.39
2017-06-17T07:02:32.999Z,14.29
2017-06-17T07:03:33.217Z,14.36
2017-06-17T07:04:21.140Z,14.31
2017-06-17T07:05:10.105Z,14.32
2017-06-17T07:05:58.344Z,14.44
2017-06-17T07:06:47.234Z,14.45
2017-06-17T07:07:41.287Z,14.75
2017-06-17T07:08:36.302Z,14.76
2017-06-17T07:09:25.361Z,14.81
2017-06-17T07:10:14.733Z,14.80
2017-06-17T07:11:09.630Z,14.80
2017-06-17T07:11:58.650Z,14.81
2017-06-17T07:12:47.782Z,15.05
2017-06-17T07:13:42.831Z,14.98
2017-06-17T07:14:36.930Z,14.94
2017-06-17T07:15:36.901Z,14.87
2017-06-17T07:16:25.937Z,14.89
2017-06-17T07:17:15.010Z,14.96
2017-06-17T07:18:15.016Z,15.08
2017-06-17T07:19:09.062Z,15.08
2017-06-17T07:20:09.147Z,15.02
2017-06-17T07:21:03.197Z,14.98
2017-06-17T07:21:57.215Z,15.02
2017-06-17T07:22:57.271Z,14.92
2017-06-17T07:23:45.267Z,14.86
2017-06-17T07:24:33.299Z,14.82
2017-06-17T07:25:21.363Z,14.86
2017-06-17T07:26:10.474Z,14.90
2017-06-17T07:26:58.491Z,14.93
2017-06-17T07:27:47.563Z,15.00
2017-06-17T07:28:35.562Z,15.00
2017-06-17T07:29:24.653Z,14.98
2017-06-17T07:30:19.712Z,14.95
2017-06-17T07:31:07.772Z,15.06
2017-06-17T07:31:57.015Z,15.04
2017-06-17T07:32:45.832Z,14.94
2017-06-17T07:33:34.929Z,14.82
2017-06-17T07:34:28.873Z,14.85
2017-06-17T07:35:18.042Z,14.80
2017-06-17T07:36:17.980Z,14.78
2017-06-17T07:37:07.106Z,14.73
2017-06-17T07:37:55.099Z,14.77
2017-06-17T07:38:55.127Z,14.63
2017-06-17T07:39:49.264Z,14.72
2017-06-17T07:40:44.234Z,14.78
2017-06-17T07:41:33.271Z,14.78
2017-06-17T07:42:27.356Z,14.74
2017-06-17T07:43:15.374Z,14.80
2017-06-17T07:44:09.466Z,14.76
2017-06-17T07:45:03.492Z,14.87
2017-06-17T07:45:52.576Z,15.02
2017-06-17T07:46:41.623Z,15.00
2017-06-17T07:47:35.692Z,15.08
2017-06-17T07:48:29.691Z,15.05
2017-06-17T07:49:23.735Z,14.93
2017-06-17T07:50:18.829Z,15.02
2017-06-17T07:51:06.847Z,15.16
2017-06-17T07:51:54.863Z,15.14
2017-06-17T07:52:54.959Z,15.12
2017-06-17T07:53:42.901Z,15.21
2017-06-17T07:54:38.001Z,15.38
2017-06-17T07:55:32.051Z,15.52
2017-06-17T07:56:26.115Z,15.56
2017-06-17T07:57:15.145Z,15.59
2017-06-17T07:58:04.229Z,15.64
2017-06-17T07:58:58.230Z,15.62
2017-06-17T07:59:46.302Z,15.61
2017-06-17T08:00:41.325Z,15.72
2017-06-17T08:01:36.360Z,15.96
2017-06-17T08:02:30.431Z,15.96
2017-06-17T08:03:24.529Z,16.18
2017-06-17T08:04:19.529Z,16.23
2017-06-17T08:05:13.602Z,16.13
2017-06-17T08:06:07.539Z,16.27
2017-06-17T08:07:02.625Z,16.40
2017-06-17T08:07:51.726Z,16.32
2017-06-17T08:08:46.708Z,16.27
2017-06-17T08:09:40.793Z,16.38
2017-06-17T08:10:35.948Z,16.46
2017-06-17T08:11:24.865Z,16.57
2017-06-17T08:12:25.920Z,16.74
2017-06-17T08:13:19.940Z,16.71
2017-06-17T08:14:08.032Z,16.63
2017-06-17T08:15:03.033Z,16.51
2017-06-17T08:15:52.133Z,16.48
2017-06-17T08:16:52.135Z,16.44
2017-06-17T08:17:47.157Z,16.32
2017-06-17T08:18:42.214Z,16.35
2017-06-17T08:19:42.334Z,16.29
2017-06-17T08:20:36.339Z,16.33
2017-06-17T08:21:30.364Z,16.56
2017-06-17T08:22:24.415Z,16.50
2017-06-17T08:23:19.468Z,16.42
2017-06-17T08:24:13.493Z,16.39
2017-06-17T08:25:02.612Z,16.40
2017-06-17T08:25:51.621Z,16.43
2017-06-17T08:26:40.609Z,16.44
2017-06-17T08:27:35.713Z,16.56
2017-06-17T08:28:30.751Z,16.68
2017-06-17T08:29:30.808Z,16.74
2017-06-17T08:30:24.840Z,16.75
2017-06-17T08:31:25.050Z,16.69
2017-06-17T08:32:18.970Z,16.74
2017-06-17T08:33:18.980Z,16.76
2017-06-17T08:34:14.049Z,16.72
2017-06-17T08:35:08.123Z,16.62
2017-06-17T08:35:56.216Z,16.62
2017-06-17T08:36:45.215Z,16.84
2017-06-17T08:37:39.218Z,16.82
2017-06-17T08:38:33.268Z,16.76
2017-06-17T08:39:27.358Z,16.98
2017-06-17T08:40:27.325Z,17.14
2017-06-17T08:41:21.471Z,17.34
2017-06-17T08:42:15.433Z,17.53
2017-06-17T08:43:10.548Z,17.43
2017-06-17T08:44:05.538Z,17.43
2017-06-17T08:44:59.638Z,17.54
2017-06-17T08:45:54.643Z,17.77
2017-06-17T08:46:48.682Z,17.78
2017-06-17T08:47:42.737Z,17.85
2017-06-17T08:48:31.812Z,17.92
2017-06-17T08:49:26.842Z,18.06
2017-06-17T08:50:15.955Z,18.38
2017-06-17T08:51:10.970Z,18.57
2017-06-17T08:52:00.160Z,18.52
2017-06-17T08:52:48.040Z,18.66
2017-06-17T08:53:43.130Z,18.70
2017-06-17T08:54:38.184Z,18.68
2017-06-17T08:55:32.227Z,18.60
2017-06-17T08:56:27.273Z,18.61
2017-06-17T08:57:21.349Z,18.91
2017-06-17T08:58:10.338Z,19.02
2017-06-17T08:58:59.447Z,19.12
2017-06-17T08:59:53.456Z,19.17
2017-06-17T09:00:54.537Z,19.32
2017-06-17T09:01:48.584Z,19.33
2017-06-17T09:02:48.635Z,19.50
2017-06-17T09:03:36.689Z,19.52
2017-06-17T09:04:31.702Z,19.55
2017-06-17T09:05:25.745Z,19.32
2017-06-17T09:06:26.862Z,19.16
2017-06-17T09:07:15.873Z,19.20
2017-06-17T09:08:11.050Z,19.08
2017-06-17T09:09:05.974Z,19.00
2017-06-17T09:09:55.028Z,18.79
2017-06-17T09:11:01.069Z,18.73
2017-06-17T09:11:56.123Z,18.78
2017-06-17T09:12:50.158Z,19.02
2017-06-17T09:13:50.232Z,18.96
2017-06-17T09:14:44.226Z,18.89
2017-06-17T09:15:44.259Z,18.84
2017-06-17T09:16:33.367Z,18.81
2017-06-17T09:17:33.393Z,18.94
2017-06-17T09:18:33.468Z,19.00
2017-06-17T09:19:33.495Z,19.00
2017-06-17T09:20:33.274Z,19.03
2017-06-17T09:21:28.311Z,18.99
2017-06-17T09:22:28.380Z,18.91
2017-06-17T09:23:22.388Z,18.83
2017-06-17T09:24:11.480Z,18.74
2017-06-17T09:25:05.721Z,18.76
2017-06-17T09:25:59.720Z,18.62
2017-06-17T09:26:53.667Z,18.68
2017-06-17T09:27:42.680Z,18.56
2017-06-17T09:28:36.767Z,18.33
2017-06-17T09:29:36.808Z,18.28
2017-06-17T09:30:30.889Z,18.22
2017-06-17T09:31:24.964Z,18.12
2017-06-17T09:32:20.241Z,18.30
2017-06-17T09:33:14.171Z,18.36
2017-06-17T09:34:03.278Z,18.50
2017-06-17T09:34:57.092Z,18.50
2017-06-17T09:35:45.184Z,18.59
2017-06-17T09:36:34.428Z,18.70
2017-06-17T09:37:28.244Z,18.86
2017-06-17T09:38:28.503Z,19.01
2017-06-17T09:39:22.586Z,19.05
2017-06-17T09:40:22.601Z,19.14
2017-06-17T09:41:11.790Z,19.13
2017-06-17T09:42:05.763Z,19.25
2017-06-17T09:43:00.729Z,19.12
2017-06-17T09:43:54.830Z,19.11
2017-06-17T09:44:54.897Z,19.15
2017-06-17T09:45:42.960Z,19.04
2017-06-17T09:46:43.013Z,18.87
2017-06-17T09:47:32.027Z,18.88
2017-06-17T09:48:21.083Z,18.85
2017-06-17T09:49:15.144Z,18.76
2017-06-17T09:50:10.186Z,18.78
2017-06-17T09:51:04.263Z,18.74
2017-06-17T09:51:53.355Z,18.66
2017-06-17T09:52:48.384Z,18.66
2017-06-17T09:53:42.391Z,18.48
2017-06-17T09:54:36.456Z,18.38
2017-06-17T09:55:24.524Z,18.18
2017-06-17T09:56:18.582Z,17.91
2017-06-17T09:57:12.836Z,17.89
2017-06-17T09:58:00.653Z,17.76
2017-06-17T09:58:48.721Z,17.68
2017-06-17T09:59:42.741Z,17.58
2017-06-17T10:00:36.831Z,17.50
2017-06-17T10:01:24.866Z,17.56
2017-06-17T10:02:13.929Z,17.42
2017-06-17T10:03:08.985Z,17.36
2017-06-17T10:03:57.040Z,17.29
2017-06-17T10:04:57.117Z,17.34
2017-06-17T10:05:57.066Z,17.36
2017-06-17T10:06:51.153Z,17.52
2017-06-17T10:07:51.235Z,17.44
2017-06-17T10:08:40.245Z,17.28
2017-06-17T10:09:29.269Z,17.27
2017-06-17T10:10:23.327Z,17.09
2017-06-17T10:11:12.376Z,17.10
2017-06-17T10:12:06.443Z,17.02
2017-06-17T10:12:55.728Z,17.00
2017-06-17T10:13:50.543Z,17.04
2017-06-17T10:14:44.595Z,17.03
2017-06-17T10:15:38.652Z,17.14
2017-06-17T10:16:33.676Z,17.34
2017-06-17T10:17:22.729Z,17.47
2017-06-17T10:18:22.813Z,17.48
2017-06-17T10:19:22.840Z,17.62
2017-06-17T10:20:17.893Z,17.76
2017-06-17T10:21:05.868Z,17.88
2017-06-17T10:22:00.928Z,18.06
2017-06-17T10:22:54.979Z,18.17
2017-06-17T10:23:48.872Z,18.30
2017-06-17T10:24:36.910Z,18.32
2017-06-17T10:25:24.912Z,18.35
2017-06-17T10:26:25.099Z,18.34
2017-06-17T10:27:14.146Z,18.36
2017-06-17T10:28:08.078Z,18.26
2017-06-17T10:29:03.182Z,18.37
2017-06-17T10:29:58.183Z,18.54
2017-06-17T10:30:47.227Z,18.56
2017-06-17T10:31:41.459Z,18.65
2017-06-17T10:32:36.451Z,18.77
2017-06-17T10:33:36.383Z,18.80
2017-06-17T10:34:30.419Z,18.97
2017-06-17T10:35:24.426Z,18.91
2017-06-17T10:36:18.881Z,18.90
2017-06-17T10:37:18.597Z,18.72
2017-06-17T10:38:13.616Z,18.79
2017-06-17T10:39:07.758Z,19.00
2017-06-17T10:40:01.927Z,19.22
2017-06-17T10:40:55.992Z,19.49
2017-06-17T10:41:57.046Z,19.69
2017-06-17T10:42:46.128Z,19.81
2017-06-17T10:43:41.177Z,20.00
2017-06-17T10:44:35.166Z,20.24
2017-06-17T10:45:24.343Z,20.47
2017-06-17T10:46:12.296Z,20.70
2017-06-17T10:47:07.347Z,20.90
2017-06-17T10:47:56.474Z,20.84
2017-06-17T10:48:50.463Z,20.84
2017-06-17T10:49:45.549Z,20.93
2017-06-17T10:50:39.589Z,20.74
2017-06-17T10:51:34.658Z,20.63
2017-06-17T10:52:28.597Z,20.48
2017-06-17T10:53:29.566Z,20.17
2017-06-17T10:54:24.796Z,19.83
2017-06-17T10:55:19.891Z,19.69
2017-06-17T10:56:13.855Z,19.53
2017-06-17T10:57:13.895Z,19.28
2017-06-17T10:58:07.983Z,19.10
2017-06-17T10:59:02.795Z,19.02
2017-06-17T10:59:57.866Z,19.01
2017-06-17T11:00:53.124Z,19.10
2017-06-17T11:01:41.255Z,19.07
2017-06-17T11:02:29.247Z,19.04
2017-06-17T11:03:29.290Z,19.04
2017-06-17T11:04:17.370Z,19.00
2017-06-17T11:05:12.246Z,18.88
2017-06-17T11:06:07.471Z,19.02
2017-06-17T11:07:07.549Z,18.92
2017-06-17T11:08:02.537Z,18.90
2017-06-17T11:09:02.613Z,18.96
2017-06-17T11:09:51.627Z,19.04
2017-06-17T11:10:45.473Z,18.96
2017-06-17T11:11:39.731Z,18.86
2017-06-17T11:12:33.823Z,18.82
2017-06-17T11:13:33.750Z,19.03
2017-06-17T11:14:22.891Z,18.96
2017-06-17T11:15:17.987Z,18.96
2017-06-17T11:16:07.061Z,18.96
2017-06-17T11:17:01.027Z,18.86
2017-06-17T11:17:55.120Z,18.86
2017-06-17T11:18:44.151Z,19.07
2017-06-17T11:19:33.239Z,19.17
2017-06-17T11:20:22.328Z,19.28
2017-06-17T11:21:17.303Z,19.23
2017-06-17T11:22:17.370Z,19.11
2017-06-17T11:23:11.726Z,18.98
2017-06-17T11:24:05.484Z,18.81
2017-06-17T11:25:05.544Z,18.69
2017-06-17T11:25:59.547Z,18.76
2017-06-17T11:26:53.624Z,18.84
2017-06-17T11:27:41.716Z,18.96
2017-06-17T11:28:42.070Z,19.02
2017-06-17T11:29:29.789Z,19.07
2017-06-17T11:30:24.817Z,19.14
2017-06-17T11:31:24.980Z,19.20
2017-06-17T11:32:13.945Z,19.18
2017-06-17T11:33:07.954Z,19.19
2017-06-17T11:34:08.393Z,19.11
2017-06-17T11:34:57.114Z,19.15
2017-06-17T11:35:46.123Z,19.06
2017-06-17T11:36:40.219Z,18.94
2017-06-17T11:37:34.271Z,18.82
2017-06-17T11:38:23.308Z,18.72